sensor_id;sensor_type;location;lat;lon;timestamp;pressure;altitude;pressure_sealevel;temperature;humidity
68179;BME280;54998;42.656;23.382;2023-03-04T00:01:53;94921.50;;;4.55;81.07
68179;BME280;54998;42.656;23.382;2023-03-04T00:04:18;94927.00;;;4.62;81.06
68179;BME280;54998;42.656;23.382;2023-03-04T00:06:44;94925.69;;;4.69;80.60
68179;BME280;54998;42.656;23.382;2023-03-04T00:09:09;94923.25;;;4.67;80.47
68179;BME280;54998;42.656;23.382;2023-03-04T00:11:34;94917.66;;;4.62;80.56
68179;BME280;54998;42.656;23.382;2023-03-04T00:14:00;94916.97;;;4.60;80.34
68179;BME280;54998;42.656;23.382;2023-03-04T00:16:25;94909.44;;;4.46;80.57
68179;BME280;54998;42.656;23.382;2023-03-04T00:18:55;94905.16;;;4.46;80.60
68179;BME280;54998;42.656;23.382;2023-03-04T00:21:21;94900.78;;;4.48;80.62
68179;BME280;54998;42.656;23.382;2023-03-04T00:23:46;94902.09;;;4.41;80.72
68179;BME280;54998;42.656;23.382;2023-03-04T00:26:12;94912.78;;;4.46;80.33
68179;BME280;54998;42.656;23.382;2023-03-04T00:28:38;94901.06;;;4.31;80.90
68179;BME280;54998;42.656;23.382;2023-03-04T00:31:05;94907.81;;;4.32;80.97
68179;BME280;54998;42.656;23.382;2023-03-04T00:33:30;94913.28;;;4.39;81.01
68179;BME280;54998;42.656;23.382;2023-03-04T00:35:55;94896.91;;;4.17;81.58
68179;BME280;54998;42.656;23.382;2023-03-04T00:38:21;94898.66;;;4.29;81.62
68179;BME280;54998;42.656;23.382;2023-03-04T00:40:46;94901.00;;;4.32;81.39
68179;BME280;54998;42.656;23.382;2023-03-04T00:43:12;94905.34;;;4.30;81.56
68179;BME280;54998;42.656;23.382;2023-03-04T00:45:37;94908.94;;;4.41;80.98
68179;BME280;54998;42.656;23.382;2023-03-04T00:48:02;94905.06;;;4.48;81.16
68179;BME280;54998;42.656;23.382;2023-03-04T00:50:28;94908.31;;;4.50;80.71
68179;BME280;54998;42.656;23.382;2023-03-04T00:52:53;94897.53;;;4.46;81.00
68179;BME280;54998;42.656;23.382;2023-03-04T00:55:19;94892.25;;;4.49;80.67
68179;BME280;54998;42.656;23.382;2023-03-04T00:57:44;94893.47;;;4.44;81.20
68179;BME280;54998;42.656;23.382;2023-03-04T01:00:12;94895.38;;;4.53;80.25
68179;BME280;54998;42.656;23.382;2023-03-04T01:02:38;94892.56;;;4.58;80.51
68179;BME280;54998;42.656;23.382;2023-03-04T01:05:04;94896.63;;;4.47;79.83
68179;BME280;54998;42.656;23.382;2023-03-04T01:07:29;94899.97;;;4.48;79.74
68179;BME280;54998;42.656;23.382;2023-03-04T01:09:55;94896.41;;;4.50;79.98
68179;BME280;54998;42.656;23.382;2023-03-04T01:12:20;94896.94;;;4.56;80.41
68179;BME280;54998;42.656;23.382;2023-03-04T01:14:46;94897.81;;;4.67;79.45
68179;BME280;54998;42.656;23.382;2023-03-04T01:17:11;94893.38;;;4.58;79.79
68179;BME280;54998;42.656;23.382;2023-03-04T01:19:36;94886.66;;;4.57;79.42
68179;BME280;54998;42.656;23.382;2023-03-04T01:22:02;94885.03;;;4.56;79.84
68179;BME280;54998;42.656;23.382;2023-03-04T01:24:28;94875.97;;;4.65;79.62
68179;BME280;54998;42.656;23.382;2023-03-04T01:26:54;94884.81;;;4.59;79.59
68179;BME280;54998;42.656;23.382;2023-03-04T01:29:20;94880.03;;;4.29;80.66
68179;BME280;54998;42.656;23.382;2023-03-04T01:31:45;94876.91;;;4.38;80.48
68179;BME280;54998;42.656;23.382;2023-03-04T01:34:10;94872.22;;;4.32;80.70
68179;BME280;54998;42.656;23.382;2023-03-04T01:36:36;94870.81;;;4.15;81.25
68179;BME280;54998;42.656;23.382;2023-03-04T01:39:02;94863.09;;;4.17;82.02
68179;BME280;54998;42.656;23.382;2023-03-04T01:41:27;94869.88;;;4.16;81.48
68179;BME280;54998;42.656;23.382;2023-03-04T01:43:55;94867.25;;;4.18;81.47
68179;BME280;54998;42.656;23.382;2023-03-04T01:46:22;94863.81;;;4.19;81.70
68179;BME280;54998;42.656;23.382;2023-03-04T01:48:48;94855.34;;;4.05;81.62
68179;BME280;54998;42.656;23.382;2023-03-04T01:51:16;94862.88;;;4.07;81.94
68179;BME280;54998;42.656;23.382;2023-03-04T01:53:42;94859.50;;;4.06;81.96
68179;BME280;54998;42.656;23.382;2023-03-04T01:59:12;94857.41;;;4.26;81.46
68179;BME280;54998;42.656;23.382;2023-03-04T02:01:39;94854.84;;;4.26;81.14
68179;BME280;54998;42.656;23.382;2023-03-04T02:04:05;94859.44;;;4.21;80.47
68179;BME280;54998;42.656;23.382;2023-03-04T02:06:31;94856.66;;;4.11;80.84
68179;BME280;54998;42.656;23.382;2023-03-04T02:08:57;94861.22;;;3.93;81.36
68179;BME280;54998;42.656;23.382;2023-03-04T02:11:22;94861.66;;;4.00;80.90
68179;BME280;54998;42.656;23.382;2023-03-04T02:13:48;94855.75;;;3.99;81.27
68179;BME280;54998;42.656;23.382;2023-03-04T02:16:13;94856.88;;;4.08;81.00
68179;BME280;54998;42.656;23.382;2023-03-04T02:18:39;94853.03;;;4.15;80.65
68179;BME280;54998;42.656;23.382;2023-03-04T02:21:16;94850.25;;;4.18;80.25
68179;BME280;54998;42.656;23.382;2023-03-04T02:23:48;94854.03;;;4.25;79.67
68179;BME280;54998;42.656;23.382;2023-03-04T02:26:21;94852.63;;;4.21;79.97
68179;BME280;54998;42.656;23.382;2023-03-04T02:28:49;94857.47;;;4.24;79.73
68179;BME280;54998;42.656;23.382;2023-03-04T02:33:54;94850.25;;;4.18;80.10
68179;BME280;54998;42.656;23.382;2023-03-04T02:36:21;94853.72;;;4.17;80.15
68179;BME280;54998;42.656;23.382;2023-03-04T02:38:48;94848.13;;;4.25;79.99
68179;BME280;54998;42.656;23.382;2023-03-04T02:41:15;94847.13;;;4.27;79.68
68179;BME280;54998;42.656;23.382;2023-03-04T02:43:45;94844.59;;;4.27;79.96
68179;BME280;54998;42.656;23.382;2023-03-04T02:46:11;94842.25;;;4.24;79.52
68179;BME280;54998;42.656;23.382;2023-03-04T02:48:37;94838.09;;;4.23;79.68
68179;BME280;54998;42.656;23.382;2023-03-04T02:51:02;94839.59;;;4.13;79.95
68179;BME280;54998;42.656;23.382;2023-03-04T02:53:28;94839.28;;;4.05;79.86
68179;BME280;54998;42.656;23.382;2023-03-04T02:55:53;94844.75;;;3.99;80.33
68179;BME280;54998;42.656;23.382;2023-03-04T02:58:19;94837.78;;;4.02;80.48
68179;BME280;54998;42.656;23.382;2023-03-04T03:00:44;94836.44;;;3.97;80.07
68179;BME280;54998;42.656;23.382;2023-03-04T03:03:09;94839.38;;;3.78;80.71
68179;BME280;54998;42.656;23.382;2023-03-04T03:05:36;94842.84;;;3.89;80.85
68179;BME280;54998;42.656;23.382;2023-03-04T03:08:02;94841.22;;;3.88;80.95
68179;BME280;54998;42.656;23.382;2023-03-04T03:10:28;94830.75;;;3.80;80.67
68179;BME280;54998;42.656;23.382;2023-03-04T03:12:53;94839.84;;;3.70;80.86
68179;BME280;54998;42.656;23.382;2023-03-04T03:15:19;94841.69;;;3.68;81.17
68179;BME280;54998;42.656;23.382;2023-03-04T03:17:44;94836.63;;;3.81;80.93
68179;BME280;54998;42.656;23.382;2023-03-04T03:20:11;94843.94;;;3.85;80.58
68179;BME280;54998;42.656;23.382;2023-03-04T03:22:37;94843.56;;;3.91;80.45
68179;BME280;54998;42.656;23.382;2023-03-04T03:25:03;94838.25;;;3.95;79.97
68179;BME280;54998;42.656;23.382;2023-03-04T03:27:29;94849.84;;;3.99;79.86
68179;BME280;54998;42.656;23.382;2023-03-04T03:29:54;94845.31;;;4.04;80.11
68179;BME280;54998;42.656;23.382;2023-03-04T03:32:19;94831.16;;;4.00;80.34
68179;BME280;54998;42.656;23.382;2023-03-04T03:34:45;94833.19;;;3.82;80.20
68179;BME280;54998;42.656;23.382;2023-03-04T03:37:10;94834.28;;;3.65;80.27
68179;BME280;54998;42.656;23.382;2023-03-04T03:39:35;94832.34;;;3.56;80.50
68179;BME280;54998;42.656;23.382;2023-03-04T03:42:01;94824.28;;;3.49;80.74
68179;BME280;54998;42.656;23.382;2023-03-04T03:44:27;94824.56;;;3.44;81.23
68179;BME280;54998;42.656;23.382;2023-03-04T03:46:52;94820.19;;;3.34;81.05
68179;BME280;54998;42.656;23.382;2023-03-04T03:49:18;94818.13;;;3.26;81.69
68179;BME280;54998;42.656;23.382;2023-03-04T03:51:43;94824.41;;;3.20;81.70
68179;BME280;54998;42.656;23.382;2023-03-04T03:54:08;94822.97;;;3.16;82.06
68179;BME280;54998;42.656;23.382;2023-03-04T03:56:34;94822.00;;;3.04;82.21
68179;BME280;54998;42.656;23.382;2023-03-04T03:58:59;94815.59;;;2.99;82.31
68179;BME280;54998;42.656;23.382;2023-03-04T04:01:25;94821.66;;;2.96;82.75
68179;BME280;54998;42.656;23.382;2023-03-04T04:03:50;94814.44;;;2.90;83.05
68179;BME280;54998;42.656;23.382;2023-03-04T04:06:16;94809.84;;;2.82;83.08
68179;BME280;54998;42.656;23.382;2023-03-04T04:08:41;94808.50;;;2.77;83.46
68179;BME280;54998;42.656;23.382;2023-03-04T04:11:11;94813.94;;;2.71;83.62
68179;BME280;54998;42.656;23.382;2023-03-04T04:13:37;94815.13;;;2.65;83.71
68179;BME280;54998;42.656;23.382;2023-03-04T04:16:02;94819.56;;;2.61;83.41
68179;BME280;54998;42.656;23.382;2023-03-04T04:18:28;94812.34;;;2.55;83.57
68179;BME280;54998;42.656;23.382;2023-03-04T04:20:53;94821.13;;;2.50;84.38
68179;BME280;54998;42.656;23.382;2023-03-04T04:23:19;94815.16;;;2.51;84.36
68179;BME280;54998;42.656;23.382;2023-03-04T04:25:45;94816.97;;;2.49;84.92
68179;BME280;54998;42.656;23.382;2023-03-04T04:28:10;94815.06;;;2.52;85.07
68179;BME280;54998;42.656;23.382;2023-03-04T04:30:36;94811.97;;;2.61;85.03
68179;BME280;54998;42.656;23.382;2023-03-04T04:33:02;94819.63;;;2.74;85.55
68179;BME280;54998;42.656;23.382;2023-03-04T04:35:32;94813.41;;;2.80;84.99
68179;BME280;54998;42.656;23.382;2023-03-04T04:37:59;94819.19;;;2.67;84.73
68179;BME280;54998;42.656;23.382;2023-03-04T04:40:24;94814.06;;;2.55;84.36
68179;BME280;54998;42.656;23.382;2023-03-04T04:42:49;94808.63;;;2.61;84.49
68179;BME280;54998;42.656;23.382;2023-03-04T04:45:15;94812.50;;;2.66;84.91
68179;BME280;54998;42.656;23.382;2023-03-04T04:47:41;94808.16;;;2.68;84.39
68179;BME280;54998;42.656;23.382;2023-03-04T04:50:06;94810.16;;;2.49;83.50
68179;BME280;54998;42.656;23.382;2023-03-04T04:52:32;94805.22;;;2.47;84.07
68179;BME280;54998;42.656;23.382;2023-03-04T04:54:57;94817.41;;;2.55;83.75
68179;BME280;54998;42.656;23.382;2023-03-04T04:57:23;94823.03;;;2.46;83.93
68179;BME280;54998;42.656;23.382;2023-03-04T04:59:48;94828.63;;;2.51;84.19
68179;BME280;54998;42.656;23.382;2023-03-04T05:02:14;94824.28;;;2.53;83.40
68179;BME280;54998;42.656;23.382;2023-03-04T05:04:40;94824.28;;;2.67;83.54
68179;BME280;54998;42.656;23.382;2023-03-04T05:07:05;94827.16;;;2.76;82.73
68179;BME280;54998;42.656;23.382;2023-03-04T05:09:30;94831.09;;;2.94;82.08
68179;BME280;54998;42.656;23.382;2023-03-04T05:11:56;94841.28;;;3.07;80.33
68179;BME280;54998;42.656;23.382;2023-03-04T05:16:51;94828.63;;;3.07;79.56
68179;BME280;54998;42.656;23.382;2023-03-04T05:19:18;94835.19;;;3.24;79.65
68179;BME280;54998;42.656;23.382;2023-03-04T05:21:43;94838.34;;;3.27;78.71
68179;BME280;54998;42.656;23.382;2023-03-04T05:24:09;94841.31;;;3.34;78.56
68179;BME280;54998;42.656;23.382;2023-03-04T05:26:34;94849.50;;;3.38;78.44
68179;BME280;54998;42.656;23.382;2023-03-04T05:28:59;94845.78;;;3.43;78.23
68179;BME280;54998;42.656;23.382;2023-03-04T05:31:25;94846.56;;;3.58;78.23
68179;BME280;54998;42.656;23.382;2023-03-04T05:33:50;94850.41;;;3.64;77.34
68179;BME280;54998;42.656;23.382;2023-03-04T05:36:16;94856.81;;;3.69;76.42
68179;BME280;54998;42.656;23.382;2023-03-04T05:38:41;94853.19;;;3.74;75.74
68179;BME280;54998;42.656;23.382;2023-03-04T05:41:06;94857.63;;;3.70;75.44
68179;BME280;54998;42.656;23.382;2023-03-04T05:43:33;94862.06;;;3.66;75.17
68179;BME280;54998;42.656;23.382;2023-03-04T05:46:00;94851.41;;;3.61;74.54
68179;BME280;54998;42.656;23.382;2023-03-04T05:48:26;94861.88;;;3.57;74.14
68179;BME280;54998;42.656;23.382;2023-03-04T05:50:58;94862.97;;;3.53;74.20
68179;BME280;54998;42.656;23.382;2023-03-04T05:53:24;94858.34;;;3.72;74.05
68179;BME280;54998;42.656;23.382;2023-03-04T05:55:50;94861.31;;;3.79;74.37
68179;BME280;54998;42.656;23.382;2023-03-04T05:58:16;94861.63;;;3.87;73.77
68179;BME280;54998;42.656;23.382;2023-03-04T06:00:42;94859.38;;;3.82;73.51
68179;BME280;54998;42.656;23.382;2023-03-04T06:03:17;94864.66;;;3.92;73.40
68179;BME280;54998;42.656;23.382;2023-03-04T06:05:43;94863.94;;;3.90;73.46
68179;BME280;54998;42.656;23.382;2023-03-04T06:08:09;94868.47;;;3.99;73.54
68179;BME280;54998;42.656;23.382;2023-03-04T06:10:35;94876.50;;;4.06;73.88
68179;BME280;54998;42.656;23.382;2023-03-04T06:13:01;94873.94;;;4.06;73.60
68179;BME280;54998;42.656;23.382;2023-03-04T06:15:27;94875.06;;;4.15;73.38
68179;BME280;54998;42.656;23.382;2023-03-04T06:17:52;94875.06;;;4.02;74.13
68179;BME280;54998;42.656;23.382;2023-03-04T06:20:17;94881.75;;;4.03;74.34
68179;BME280;54998;42.656;23.382;2023-03-04T06:22:43;94874.53;;;3.97;73.67
68179;BME280;54998;42.656;23.382;2023-03-04T06:25:08;94877.59;;;4.02;73.81
68179;BME280;54998;42.656;23.382;2023-03-04T06:27:34;94879.53;;;4.11;73.65
68179;BME280;54998;42.656;23.382;2023-03-04T06:30:00;94875.66;;;4.18;72.70
68179;BME280;54998;42.656;23.382;2023-03-04T06:32:26;94879.63;;;4.22;72.62
68179;BME280;54998;42.656;23.382;2023-03-04T06:34:51;94878.91;;;4.20;72.97
68179;BME280;54998;42.656;23.382;2023-03-04T06:37:17;94890.41;;;4.26;72.56
68179;BME280;54998;42.656;23.382;2023-03-04T06:39:43;94890.22;;;4.42;72.49
68179;BME280;54998;42.656;23.382;2023-03-04T06:42:08;94889.81;;;4.48;72.28
68179;BME280;54998;42.656;23.382;2023-03-04T06:44:34;94894.06;;;4.35;72.35
68179;BME280;54998;42.656;23.382;2023-03-04T06:46:59;94889.69;;;4.24;72.03
68179;BME280;54998;42.656;23.382;2023-03-04T06:49:24;94886.03;;;4.15;73.23
68179;BME280;54998;42.656;23.382;2023-03-04T06:51:50;94896.00;;;4.31;72.77
68179;BME280;54998;42.656;23.382;2023-03-04T06:54:15;94902.19;;;4.14;73.87
68179;BME280;54998;42.656;23.382;2023-03-04T06:56:40;94899.53;;;4.03;74.08
68179;BME280;54998;42.656;23.382;2023-03-04T06:59:06;94898.50;;;3.93;74.72
68179;BME280;54998;42.656;23.382;2023-03-04T07:01:31;94898.94;;;3.99;75.04
68179;BME280;54998;42.656;23.382;2023-03-04T07:03:57;94901.38;;;4.14;74.13
68179;BME280;54998;42.656;23.382;2023-03-04T07:06:26;94894.47;;;4.28;73.60
68179;BME280;54998;42.656;23.382;2023-03-04T07:08:52;94895.69;;;4.23;73.83
68179;BME280;54998;42.656;23.382;2023-03-04T07:11:19;94911.75;;;4.10;74.37
68179;BME280;54998;42.656;23.382;2023-03-04T07:13:45;94900.34;;;3.90;75.03
68179;BME280;54998;42.656;23.382;2023-03-04T07:16:13;94900.81;;;3.83;75.34
68179;BME280;54998;42.656;23.382;2023-03-04T07:18:39;94905.09;;;3.82;75.74
68179;BME280;54998;42.656;23.382;2023-03-04T07:21:05;94907.94;;;3.90;75.59
68179;BME280;54998;42.656;23.382;2023-03-04T07:23:30;94900.66;;;4.11;74.76
68179;BME280;54998;42.656;23.382;2023-03-04T07:25:56;94900.56;;;4.26;74.46
68179;BME280;54998;42.656;23.382;2023-03-04T07:28:21;94904.72;;;4.14;74.94
68179;BME280;54998;42.656;23.382;2023-03-04T07:30:47;94900.47;;;4.15;75.29
68179;BME280;54998;42.656;23.382;2023-03-04T07:33:13;94908.81;;;4.29;74.91
68179;BME280;54998;42.656;23.382;2023-03-04T07:35:38;94910.22;;;4.33;74.87
68179;BME280;54998;42.656;23.382;2023-03-04T07:38:04;94903.03;;;4.27;75.18
68179;BME280;54998;42.656;23.382;2023-03-04T07:40:29;94906.56;;;4.25;75.39
68179;BME280;54998;42.656;23.382;2023-03-04T07:42:55;94902.72;;;4.45;75.85
68179;BME280;54998;42.656;23.382;2023-03-04T07:45:22;94901.06;;;4.31;76.11
68179;BME280;54998;42.656;23.382;2023-03-04T07:47:48;94905.28;;;4.45;75.65
68179;BME280;54998;42.656;23.382;2023-03-04T07:50:14;94900.69;;;4.63;75.07
68179;BME280;54998;42.656;23.382;2023-03-04T07:52:42;94903.41;;;4.85;75.17
68179;BME280;54998;42.656;23.382;2023-03-04T07:55:09;94897.94;;;5.15;74.34
68179;BME280;54998;42.656;23.382;2023-03-04T07:57:37;94898.03;;;5.51;72.74
68179;BME280;54998;42.656;23.382;2023-03-04T08:00:03;94901.88;;;5.56;71.79
68179;BME280;54998;42.656;23.382;2023-03-04T08:02:28;94902.44;;;5.49;72.15
68179;BME280;54998;42.656;23.382;2023-03-04T08:04:54;94883.34;;;5.30;71.78
68179;BME280;54998;42.656;23.382;2023-03-04T08:07:19;94895.38;;;5.52;71.82
68179;BME280;54998;42.656;23.382;2023-03-04T08:09:44;94898.97;;;5.13;72.80
68179;BME280;54998;42.656;23.382;2023-03-04T08:12:10;94897.13;;;5.15;72.51
68179;BME280;54998;42.656;23.382;2023-03-04T08:14:35;94903.25;;;5.12;72.61
68179;BME280;54998;42.656;23.382;2023-03-04T08:17:03;94895.66;;;5.37;72.53
68179;BME280;54998;42.656;23.382;2023-03-04T08:19:29;94898.66;;;5.66;71.44
68179;BME280;54998;42.656;23.382;2023-03-04T08:21:54;94900.78;;;5.96;70.23
68179;BME280;54998;42.656;23.382;2023-03-04T08:24:20;94897.00;;;6.02;69.30
68179;BME280;54998;42.656;23.382;2023-03-04T08:26:47;94893.25;;;6.30;68.26
68179;BME280;54998;42.656;23.382;2023-03-04T08:29:21;94896.03;;;6.27;68.88
68179;BME280;54998;42.656;23.382;2023-03-04T08:31:49;94891.31;;;6.78;67.72
68179;BME280;54998;42.656;23.382;2023-03-04T08:34:15;94890.63;;;6.99;65.77
68179;BME280;54998;42.656;23.382;2023-03-04T08:36:41;94884.09;;;7.29;65.68
68179;BME280;54998;42.656;23.382;2023-03-04T08:39:07;94891.63;;;7.30;65.17
68179;BME280;54998;42.656;23.382;2023-03-04T08:41:33;94882.22;;;7.95;64.24
68179;BME280;54998;42.656;23.382;2023-03-04T08:43:59;94887.44;;;8.47;62.15
68179;BME280;54998;42.656;23.382;2023-03-04T08:46:25;94871.31;;;8.56;61.98
68179;BME280;54998;42.656;23.382;2023-03-04T08:48:51;94880.44;;;8.07;62.93
68179;BME280;54998;42.656;23.382;2023-03-04T08:51:17;94879.22;;;7.26;65.06
68179;BME280;54998;42.656;23.382;2023-03-04T08:53:43;94882.72;;;7.25;65.98
68179;BME280;54998;42.656;23.382;2023-03-04T08:56:09;94874.56;;;7.74;63.19
68179;BME280;54998;42.656;23.382;2023-03-04T08:58:35;94874.88;;;7.81;63.04
68179;BME280;54998;42.656;23.382;2023-03-04T09:01:01;94868.81;;;7.82;62.92
68179;BME280;54998;42.656;23.382;2023-03-04T09:03:27;94875.53;;;7.18;65.21
68179;BME280;54998;42.656;23.382;2023-03-04T09:05:52;94867.78;;;7.41;65.13
68179;BME280;54998;42.656;23.382;2023-03-04T09:08:18;94869.34;;;7.21;64.63
68179;BME280;54998;42.656;23.382;2023-03-04T09:10:44;94862.28;;;7.25;64.29
68179;BME280;54998;42.656;23.382;2023-03-04T09:13:11;94865.94;;;7.75;63.30
68179;BME280;54998;42.656;23.382;2023-03-04T09:15:47;94865.53;;;7.91;62.79
68179;BME280;54998;42.656;23.382;2023-03-04T09:18:13;94864.16;;;7.87;62.76
68179;BME280;54998;42.656;23.382;2023-03-04T09:20:39;94864.97;;;7.55;63.01
68179;BME280;54998;42.656;23.382;2023-03-04T09:23:05;94858.06;;;7.35;63.45
68179;BME280;54998;42.656;23.382;2023-03-04T09:25:31;94853.47;;;7.29;63.92
68179;BME280;54998;42.656;23.382;2023-03-04T09:27:56;94856.47;;;7.66;63.07
68179;BME280;54998;42.656;23.382;2023-03-04T09:30:22;94853.28;;;7.74;61.52
68179;BME280;54998;42.656;23.382;2023-03-04T09:32:47;94860.50;;;8.01;60.73
68179;BME280;54998;42.656;23.382;2023-03-04T09:35:12;94853.31;;;7.95;61.44
68179;BME280;54998;42.656;23.382;2023-03-04T09:37:38;94851.16;;;8.11;60.16
68179;BME280;54998;42.656;23.382;2023-03-04T09:40:04;94840.66;;;8.14;60.14
68179;BME280;54998;42.656;23.382;2023-03-04T09:42:43;94849.88;;;7.85;60.73
68179;BME280;54998;42.656;23.382;2023-03-04T09:45:15;94843.28;;;7.82;60.43
68179;BME280;54998;42.656;23.382;2023-03-04T09:47:41;94842.03;;;8.18;59.96
68179;BME280;54998;42.656;23.382;2023-03-04T09:50:09;94840.66;;;8.35;58.47
68179;BME280;54998;42.656;23.382;2023-03-04T09:55:27;94840.03;;;8.74;57.15
68179;BME280;54998;42.656;23.382;2023-03-04T09:58:02;94835.78;;;8.53;58.13
68179;BME280;54998;42.656;23.382;2023-03-04T10:00:38;94834.91;;;8.74;57.40
68179;BME280;54998;42.656;23.382;2023-03-04T10:03:23;94833.81;;;9.17;56.42
68179;BME280;54998;42.656;23.382;2023-03-04T10:10:47;94826.69;;;9.20;56.28
68179;BME280;54998;42.656;23.382;2023-03-04T10:13:17;94818.22;;;9.30;56.02
68179;BME280;54998;42.656;23.382;2023-03-04T10:15:47;94822.81;;;9.94;53.97
68179;BME280;54998;42.656;23.382;2023-03-04T10:18:19;94818.34;;;9.48;54.54
68179;BME280;54998;42.656;23.382;2023-03-04T10:20:53;94822.53;;;9.58;54.64
68179;BME280;54998;42.656;23.382;2023-03-04T10:23:24;94815.41;;;9.33;54.88
68179;BME280;54998;42.656;23.382;2023-03-04T10:25:50;94806.63;;;9.64;55.46
68179;BME280;54998;42.656;23.382;2023-03-04T10:28:23;94803.63;;;9.11;57.26
68179;BME280;54998;42.656;23.382;2023-03-04T10:33:19;94805.44;;;8.79;57.98
68179;BME280;54998;42.656;23.382;2023-03-04T10:38:52;94790.13;;;8.49;59.13
68179;BME280;54998;42.656;23.382;2023-03-04T10:41:21;94791.81;;;8.38;58.49
68179;BME280;54998;42.656;23.382;2023-03-04T10:44:00;94790.53;;;8.54;58.55
68179;BME280;54998;42.656;23.382;2023-03-04T10:46:26;94782.06;;;8.94;57.00
68179;BME280;54998;42.656;23.382;2023-03-04T10:48:52;94779.00;;;8.59;58.07
68179;BME280;54998;42.656;23.382;2023-03-04T10:54:07;94776.22;;;7.69;61.13
68179;BME280;54998;42.656;23.382;2023-03-04T10:56:52;94772.59;;;7.71;60.98
68179;BME280;54998;42.656;23.382;2023-03-04T10:59:39;94768.31;;;7.93;60.14
68179;BME280;54998;42.656;23.382;2023-03-04T11:02:20;94763.25;;;8.33;59.39
68179;BME280;54998;42.656;23.382;2023-03-04T11:04:51;94756.75;;;9.00;57.90
68179;BME280;54998;42.656;23.382;2023-03-04T11:07:18;94757.19;;;9.35;55.12
68179;BME280;54998;42.656;23.382;2023-03-04T11:09:44;94757.97;;;9.25;55.81
68179;BME280;54998;42.656;23.382;2023-03-04T11:12:14;94744.88;;;8.99;55.74
68179;BME280;54998;42.656;23.382;2023-03-04T11:14:43;94740.53;;;10.62;53.13
68179;BME280;54998;42.656;23.382;2023-03-04T11:22:24;94708.47;;;11.92;48.30
68179;BME280;54998;42.656;23.382;2023-03-04T11:25:02;94717.59;;;11.68;48.77
68179;BME280;54998;42.656;23.382;2023-03-04T11:27:37;94713.41;;;11.23;49.51
68179;BME280;54998;42.656;23.382;2023-03-04T11:33:00;94709.22;;;12.45;47.13
68179;BME280;54998;42.656;23.382;2023-03-04T11:35:38;94693.56;;;12.81;45.59
68179;BME280;54998;42.656;23.382;2023-03-04T11:38:20;94700.47;;;11.95;46.80
68179;BME280;54998;42.656;23.382;2023-03-04T11:40:54;94692.66;;;11.61;48.16
68179;BME280;54998;42.656;23.382;2023-03-04T11:43:27;94693.75;;;10.51;51.23
68179;BME280;54998;42.656;23.382;2023-03-04T11:54:37;94679.25;;;10.77;50.65
68179;BME280;54998;42.656;23.382;2023-03-04T11:57:15;94685.09;;;11.59;48.75
68179;BME280;54998;42.656;23.382;2023-03-04T11:59:51;94679.28;;;11.57;48.66
68179;BME280;54998;42.656;23.382;2023-03-04T12:02:23;94667.00;;;10.53;51.34
68179;BME280;54998;42.656;23.382;2023-03-04T12:08:02;94667.88;;;10.06;52.53
68179;BME280;54998;42.656;23.382;2023-03-04T12:13:20;94659.38;;;9.69;52.83
68179;BME280;54998;42.656;23.382;2023-03-04T12:15:57;94660.16;;;9.69;53.79
68179;BME280;54998;42.656;23.382;2023-03-04T12:21:03;94656.50;;;9.05;56.02
68179;BME280;54998;42.656;23.382;2023-03-04T12:26:42;94654.34;;;8.61;57.09
68179;BME280;54998;42.656;23.382;2023-03-04T12:31:49;94646.28;;;9.05;56.60
68179;BME280;54998;42.656;23.382;2023-03-04T12:37:29;94643.97;;;8.73;56.93
68179;BME280;54998;42.656;23.382;2023-03-04T12:42:36;94638.66;;;8.35;58.78
68179;BME280;54998;42.656;23.382;2023-03-04T12:45:26;94639.97;;;8.30;58.65
68179;BME280;54998;42.656;23.382;2023-03-04T12:56:03;94612.19;;;8.95;57.36
68179;BME280;54998;42.656;23.382;2023-03-04T12:58:32;94622.69;;;9.01;57.46
68179;BME280;54998;42.656;23.382;2023-03-04T13:01:16;94626.16;;;9.39;56.03
68179;BME280;54998;42.656;23.382;2023-03-04T13:04:10;94603.22;;;9.85;54.86
68179;BME280;54998;42.656;23.382;2023-03-04T13:09:46;94610.88;;;9.48;55.14
68179;BME280;54998;42.656;23.382;2023-03-04T13:12:19;94603.34;;;9.36;55.34
68179;BME280;54998;42.656;23.382;2023-03-04T13:15:16;94598.31;;;9.07;56.21
68179;BME280;54998;42.656;23.382;2023-03-04T13:17:50;94601.88;;;9.34;55.79
68179;BME280;54998;42.656;23.382;2023-03-04T13:22:53;94606.91;;;9.06;56.16
68179;BME280;54998;42.656;23.382;2023-03-04T13:38:36;94587.66;;;8.43;58.37
68179;BME280;54998;42.656;23.382;2023-03-04T13:41:29;94590.72;;;8.28;58.95
68179;BME280;54998;42.656;23.382;2023-03-04T13:44:05;94583.97;;;8.17;59.54
68179;BME280;54998;42.656;23.382;2023-03-04T13:46:47;94582.44;;;8.45;58.90
68179;BME280;54998;42.656;23.382;2023-03-04T13:49:21;94583.44;;;8.23;59.17
68179;BME280;54998;42.656;23.382;2023-03-04T13:51:49;94578.88;;;8.17;60.57
68179;BME280;54998;42.656;23.382;2023-03-04T13:54:30;94578.94;;;8.56;59.01
68179;BME280;54998;42.656;23.382;2023-03-04T13:59:55;94572.22;;;8.74;58.92
68179;BME280;54998;42.656;23.382;2023-03-04T14:02:23;94564.94;;;8.79;58.90
68179;BME280;54998;42.656;23.382;2023-03-04T14:12:19;94563.53;;;9.14;57.74
68179;BME280;54998;42.656;23.382;2023-03-04T14:14:53;94558.31;;;8.96;57.69
68179;BME280;54998;42.656;23.382;2023-03-04T14:17:22;94558.03;;;8.99;57.74
68179;BME280;54998;42.656;23.382;2023-03-04T14:19:49;94552.72;;;9.20;57.26
68179;BME280;54998;42.656;23.382;2023-03-04T14:25:06;94554.91;;;9.05;57.50
68179;BME280;54998;42.656;23.382;2023-03-04T14:27:34;94545.72;;;9.22;57.52
68179;BME280;54998;42.656;23.382;2023-03-04T14:30:03;94547.38;;;9.14;57.71
68179;BME280;54998;42.656;23.382;2023-03-04T14:32:30;94546.50;;;9.70;56.78
68179;BME280;54998;42.656;23.382;2023-03-04T14:35:06;94548.28;;;9.22;57.23
68179;BME280;54998;42.656;23.382;2023-03-04T14:37:42;94544.56;;;9.07;57.69
68179;BME280;54998;42.656;23.382;2023-03-04T14:40:23;94541.19;;;9.07;57.62
68179;BME280;54998;42.656;23.382;2023-03-04T14:42:55;94538.31;;;9.19;57.11
68179;BME280;54998;42.656;23.382;2023-03-04T14:45:22;94536.25;;;9.33;57.42